createdAt,value
2022-11-14T00:02:45.579Z,54.03
2022-11-14T00:05:32.523Z,44.33
2022-11-14T00:08:25.281Z,63.83
2022-11-14T00:11:11.212Z,51.15
2022-11-14T00:13:57.206Z,50.40
2022-11-14T00:16:43.329Z,59.78
2022-11-14T00:19:29.565Z,49.95
2022-11-14T00:22:15.749Z,59.88
2022-11-14T00:25:01.990Z,59.13
2022-11-14T00:27:48.221Z,47.15
2022-11-14T00:30:34.815Z,48.53
2022-11-14T00:33:21.877Z,41.78
2022-11-14T00:36:07.998Z,41.78
2022-11-14T00:38:55.423Z,39.17
2022-11-14T00:41:42.173Z,51.08
2022-11-14T00:44:28.243Z,49.65
2022-11-14T00:47:14.141Z,56.53
2022-11-14T00:50:00.191Z,58.03
2022-11-14T00:52:46.218Z,43.90
2022-11-14T00:55:32.573Z,54.35
2022-11-14T00:58:19.554Z,49.90
2022-11-14T01:01:05.750Z,40.95
2022-11-14T01:03:53.029Z,50.33
2022-11-14T01:06:39.380Z,46.60
2022-11-14T01:09:25.330Z,65.75
2022-11-14T01:12:11.620Z,138.38
2022-11-14T01:14:57.835Z,67.43
2022-11-14T01:17:44.051Z,68.35
2022-11-14T01:20:30.417Z,96.57
2022-11-14T01:23:17.406Z,98.72
2022-11-14T01:26:05.896Z,59.90
2022-11-14T01:28:53.208Z,84.50
2022-11-14T01:31:39.778Z,63.35
2022-11-14T01:34:26.675Z,64.80
2022-11-14T01:37:13.151Z,51.03
2022-11-14T01:39:59.281Z,86.22
2022-11-14T01:43:19.672Z,62.28
2022-11-14T01:46:32.013Z,56.90
2022-11-14T01:49:31.905Z,55.90
2022-11-14T01:52:48.551Z,70.28
2022-11-14T01:55:48.489Z,62.30
2022-11-14T01:58:59.765Z,57.30
2022-11-14T02:02:15.888Z,57.78
2022-11-14T02:05:13.322Z,54.15
2022-11-14T02:07:59.953Z,59.47
2022-11-14T02:10:46.628Z,58.17
2022-11-14T02:13:32.864Z,48.10
2022-11-14T02:16:19.644Z,44.72
2022-11-14T02:19:06.125Z,51.80
2022-11-14T02:21:52.155Z,53.33
2022-11-14T02:24:38.169Z,57.30
2022-11-14T02:27:25.358Z,53.88
2022-11-14T02:30:15.525Z,45.05
2022-11-14T02:33:17.065Z,53.58
2022-11-14T02:36:03.211Z,48.00
2022-11-14T02:38:49.486Z,45.60
2022-11-14T02:41:35.516Z,49.63
2022-11-14T02:44:21.795Z,46.25
2022-11-14T02:47:07.885Z,40.92
2022-11-14T02:49:53.834Z,43.38
2022-11-14T02:52:40.007Z,39.53
2022-11-14T02:55:26.106Z,36.78
2022-11-14T02:58:12.194Z,43.88
2022-11-14T03:01:19.629Z,55.55
2022-11-14T03:04:04.627Z,40.75
2022-11-14T03:06:51.025Z,48.22
2022-11-14T03:09:37.638Z,54.47
2022-11-14T03:12:23.889Z,49.63
2022-11-14T03:15:11.048Z,47.35
2022-11-14T03:17:57.583Z,55.63
2022-11-14T03:20:43.698Z,49.13
2022-11-14T03:23:29.957Z,47.70
2022-11-14T03:26:16.720Z,54.28
2022-11-14T03:29:02.562Z,57.08
2022-11-14T03:31:48.750Z,43.55
2022-11-14T03:34:34.816Z,40.75
2022-11-14T03:37:20.888Z,39.80
2022-11-14T03:40:08.189Z,42.70
2022-11-14T03:42:54.841Z,38.85
2022-11-14T03:45:41.286Z,42.67
2022-11-14T03:48:29.290Z,45.53
2022-11-14T03:51:15.711Z,38.75
2022-11-14T03:54:02.039Z,34.15
2022-11-14T03:56:48.295Z,41.80
2022-11-14T03:59:34.441Z,34.33
2022-11-14T04:02:20.518Z,39.10
2022-11-14T04:05:07.310Z,39.28
2022-11-14T04:07:53.309Z,34.92
2022-11-14T04:10:39.913Z,39.97
2022-11-14T04:13:26.173Z,39.20
2022-11-14T04:16:12.471Z,42.70
2022-11-14T04:18:58.838Z,40.10
2022-11-14T04:21:44.866Z,34.10
2022-11-14T04:24:30.954Z,39.17
2022-11-14T04:27:17.677Z,39.97
2022-11-14T04:30:05.165Z,38.85
2022-11-14T04:32:51.307Z,44.20
2022-11-14T04:35:37.136Z,42.70
2022-11-14T04:38:23.477Z,47.35
2022-11-14T04:41:10.940Z,45.50
2022-11-14T04:43:57.194Z,40.90
2022-11-14T04:46:43.326Z,39.38
2022-11-14T04:49:29.259Z,43.55
2022-11-14T04:52:15.334Z,43.20
2022-11-14T04:55:01.493Z,38.58
2022-11-14T04:57:47.549Z,42.53
2022-11-14T05:00:33.693Z,39.17
2022-11-14T05:03:20.172Z,39.95
2022-11-14T05:06:06.820Z,45.08
2022-11-14T05:08:53.286Z,37.22
2022-11-14T05:11:40.065Z,37.35
2022-11-14T05:14:26.477Z,39.80
2022-11-14T05:17:13.103Z,32.92
2022-11-14T05:19:59.660Z,44.90
2022-11-14T05:22:45.880Z,60.47
2022-11-14T05:25:32.006Z,37.45
2022-11-14T05:28:18.362Z,37.65
2022-11-14T05:31:07.378Z,35.15
2022-11-14T05:33:54.936Z,25.05
2022-11-14T05:36:40.785Z,32.67
2022-11-14T05:39:27.071Z,34.83
2022-11-14T05:42:13.501Z,39.33
2022-11-14T05:44:59.798Z,40.30
2022-11-14T05:47:45.899Z,46.05
2022-11-14T05:50:32.560Z,35.38
2022-11-14T05:53:19.274Z,53.53
2022-11-14T05:56:08.295Z,43.42
2022-11-14T05:58:54.347Z,37.38
2022-11-14T06:01:40.942Z,32.22
2022-11-14T06:04:27.769Z,49.03
2022-11-14T06:07:18.858Z,43.03
2022-11-14T06:10:06.825Z,39.90
2022-11-14T06:12:53.871Z,33.30
2022-11-14T06:15:40.128Z,33.28
2022-11-14T06:18:27.498Z,32.78
2022-11-14T06:21:20.901Z,31.02
2022-11-14T06:24:07.156Z,30.30
2022-11-14T06:26:53.118Z,38.10
2022-11-14T06:29:39.682Z,45.25
2022-11-14T06:32:25.719Z,29.10
2022-11-14T06:35:12.506Z,28.23
2022-11-14T06:38:00.094Z,28.13
2022-11-14T06:40:46.641Z,28.55
2022-11-14T06:43:34.914Z,35.65
2022-11-14T06:46:22.656Z,32.17
2022-11-14T06:49:09.158Z,29.70
2022-11-14T06:51:55.637Z,29.70
2022-11-14T06:54:41.539Z,26.25
2022-11-14T06:57:27.635Z,27.08
2022-11-14T07:00:14.188Z,31.83
2022-11-14T07:03:00.282Z,38.88
2022-11-14T07:05:46.837Z,34.53
2022-11-14T07:08:34.062Z,32.97
2022-11-14T07:11:27.937Z,35.35
2022-11-14T07:14:14.141Z,36.25
2022-11-14T07:17:01.255Z,37.63
2022-11-14T07:19:47.271Z,30.02
2022-11-14T07:22:33.671Z,38.85
2022-11-14T07:25:22.819Z,32.50
2022-11-14T07:28:09.075Z,31.83
2022-11-14T07:30:55.794Z,28.73
2022-11-14T07:33:42.964Z,29.77
2022-11-14T07:36:29.077Z,27.50
2022-11-14T07:39:15.362Z,26.92
2022-11-14T07:42:02.120Z,28.95
2022-11-14T07:44:48.060Z,22.55
2022-11-14T07:47:34.161Z,25.42
2022-11-14T07:50:20.745Z,27.17
2022-11-14T07:53:07.465Z,27.58
2022-11-14T07:55:53.925Z,26.65
2022-11-14T07:58:41.814Z,27.70
2022-11-14T08:01:27.720Z,28.88
2022-11-14T08:04:13.804Z,24.55
2022-11-14T08:07:00.018Z,26.70
2022-11-14T08:09:46.781Z,28.33
2022-11-14T08:12:36.469Z,22.73
2022-11-14T08:15:22.820Z,22.88
2022-11-14T08:18:09.532Z,21.45
2022-11-14T08:20:58.309Z,21.38
2022-11-14T08:23:45.796Z,29.02
2022-11-14T08:26:34.417Z,23.17
2022-11-14T08:29:21.677Z,23.35
2022-11-14T08:32:08.437Z,24.35
2022-11-14T08:34:55.405Z,26.58
2022-11-14T08:37:42.150Z,20.80
2022-11-14T08:40:28.374Z,23.85
2022-11-14T08:43:15.051Z,21.10
2022-11-14T08:46:04.296Z,22.58
2022-11-14T08:48:50.413Z,23.60
2022-11-14T08:51:37.670Z,20.33
2022-11-14T08:54:24.474Z,20.55
2022-11-14T08:57:12.661Z,25.25
2022-11-14T08:59:59.418Z,26.65
2022-11-14T09:02:45.602Z,25.10
2022-11-14T09:05:32.167Z,22.17
2022-11-14T09:08:18.744Z,23.38
2022-11-14T09:11:09.961Z,23.13
2022-11-14T09:13:57.537Z,24.58
2022-11-14T09:16:44.097Z,22.85
2022-11-14T09:19:30.922Z,16.77
2022-11-14T09:22:18.164Z,20.00
2022-11-14T09:25:04.715Z,20.65
2022-11-14T09:27:51.464Z,20.45
2022-11-14T09:30:38.857Z,20.33
2022-11-14T09:33:25.548Z,19.75
2022-11-14T09:36:16.307Z,16.73
2022-11-14T09:39:02.784Z,17.65
2022-11-14T09:41:49.147Z,18.33
2022-11-14T09:45:03.286Z,19.63
2022-11-14T09:47:54.264Z,23.00
2022-11-14T09:50:46.568Z,22.77
2022-11-14T09:53:38.054Z,16.83
2022-11-14T09:56:26.493Z,20.55
2022-11-14T09:59:14.214Z,17.48
2022-11-14T10:02:13.058Z,20.23
2022-11-14T10:05:14.336Z,18.00
2022-11-14T10:08:24.727Z,20.40
2022-11-14T10:14:44.083Z,17.88
2022-11-14T10:17:48.565Z,18.50
2022-11-14T10:20:48.428Z,22.13
2022-11-14T10:23:45.659Z,20.95
2022-11-14T10:26:38.824Z,22.35
2022-11-14T10:29:28.112Z,22.80
2022-11-14T10:32:51.229Z,22.73
2022-11-14T10:35:47.220Z,22.08
2022-11-14T10:38:44.163Z,23.42
2022-11-14T10:44:43.374Z,41.78
2022-11-14T10:47:40.307Z,26.98
2022-11-14T10:50:34.512Z,38.47
2022-11-14T10:53:53.852Z,25.02
2022-11-14T10:56:48.226Z,29.55
2022-11-14T10:59:34.645Z,27.33
2022-11-14T11:02:20.963Z,21.85
2022-11-14T11:05:16.709Z,24.23
2022-11-14T11:08:42.775Z,22.45
2022-11-14T11:11:31.184Z,23.40
2022-11-14T11:17:11.856Z,26.60
2022-11-14T11:20:41.916Z,26.15
2022-11-14T11:23:28.261Z,28.48
2022-11-14T11:26:26.589Z,31.27
2022-11-14T11:29:12.993Z,33.00
2022-11-14T11:32:00.368Z,27.35
2022-11-14T11:34:47.957Z,31.92
2022-11-14T11:38:09.074Z,27.60
2022-11-14T11:44:46.237Z,29.38
2022-11-14T11:47:36.188Z,29.58
2022-11-14T11:50:24.314Z,29.73
2022-11-14T11:53:36.496Z,29.95
2022-11-14T11:56:26.682Z,31.85
2022-11-14T11:59:45.040Z,29.73
2022-11-14T12:02:31.616Z,27.85
2022-11-14T12:05:32.985Z,29.63
2022-11-14T12:08:39.354Z,27.98
2022-11-14T12:11:28.462Z,26.92
2022-11-14T12:14:42.510Z,25.88
2022-11-14T12:17:38.366Z,28.02
2022-11-14T12:20:30.509Z,30.02
2022-11-14T12:23:25.549Z,26.90
2022-11-14T12:26:20.863Z,25.42
2022-11-14T12:29:25.643Z,26.67
2022-11-14T12:32:17.819Z,27.30
2022-11-14T12:35:06.774Z,29.67
2022-11-14T12:37:56.292Z,27.15
2022-11-14T12:40:51.828Z,26.40
2022-11-14T12:43:40.270Z,30.83
2022-11-14T12:46:27.153Z,29.13
2022-11-14T12:49:38.458Z,29.50
2022-11-14T12:52:48.919Z,45.13
2022-11-14T12:58:31.776Z,30.27
2022-11-14T13:01:44.483Z,33.95
2022-11-14T13:04:46.457Z,34.35
2022-11-14T13:07:56.587Z,33.78
2022-11-14T13:13:48.310Z,35.72
2022-11-14T13:16:53.261Z,34.53
2022-11-14T13:20:05.775Z,75.95
2022-11-14T13:22:52.423Z,49.80
2022-11-14T13:25:39.044Z,34.78
2022-11-14T13:28:37.750Z,69.35
2022-11-14T13:31:35.856Z,30.92
2022-11-14T13:34:48.123Z,33.42
2022-11-14T13:37:56.428Z,30.95
2022-11-14T13:41:00.841Z,35.38
2022-11-14T13:44:15.073Z,30.38
2022-11-14T13:47:07.384Z,34.03
2022-11-14T13:50:02.699Z,30.55
2022-11-14T13:52:49.605Z,35.15
2022-11-14T13:55:57.071Z,31.60
2022-11-14T13:58:49.555Z,40.35
2022-11-14T14:01:50.559Z,35.50
2022-11-14T14:04:56.516Z,42.53
2022-11-14T14:08:16.887Z,41.53
2022-11-14T14:11:26.921Z,43.30
2022-11-14T14:14:19.910Z,45.78
2022-11-14T14:17:13.593Z,49.10
2022-11-14T14:20:05.831Z,53.63
2022-11-14T14:23:07.774Z,56.67
2022-11-14T14:26:04.302Z,40.72
2022-11-14T14:29:11.783Z,42.65
2022-11-14T14:32:16.974Z,42.33
2022-11-14T14:35:32.572Z,41.70
2022-11-14T14:38:27.956Z,61.05
2022-11-14T14:41:18.380Z,56.53
2022-11-14T14:44:04.711Z,51.20
2022-11-14T14:46:51.763Z,48.40
2022-11-14T14:49:39.117Z,45.95
2022-11-14T14:52:34.783Z,53.22
2022-11-14T14:55:27.801Z,64.47
2022-11-14T14:58:29.774Z,68.22
2022-11-14T15:01:18.766Z,77.10
2022-11-14T15:04:09.168Z,82.65
2022-11-14T15:06:57.883Z,73.68
2022-11-14T15:10:04.128Z,60.40
2022-11-14T15:12:51.763Z,55.05
2022-11-14T15:15:39.755Z,58.05
2022-11-14T15:18:29.536Z,59.33
2022-11-14T15:21:25.475Z,51.33
2022-11-14T15:24:19.505Z,47.72
2022-11-14T15:27:12.098Z,46.85
2022-11-14T15:30:01.954Z,46.67
2022-11-14T15:32:57.371Z,53.67
2022-11-14T15:35:44.107Z,48.40
2022-11-14T15:38:44.096Z,59.97
2022-11-14T15:41:33.475Z,73.05
2022-11-14T15:44:34.152Z,64.70
2022-11-14T15:47:30.399Z,56.20
2022-11-14T15:50:16.715Z,60.92
2022-11-14T15:53:05.488Z,67.72
2022-11-14T15:55:52.416Z,63.88
2022-11-14T15:58:39.273Z,85.97
2022-11-14T16:01:28.210Z,84.57
2022-11-14T16:04:19.077Z,87.80
2022-11-14T16:07:06.099Z,92.30
2022-11-14T16:09:52.637Z,97.38
2022-11-14T16:12:39.147Z,90.88
2022-11-14T16:15:26.126Z,86.15
2022-11-14T16:18:12.588Z,99.45
2022-11-14T16:21:00.185Z,95.78
2022-11-14T16:23:48.612Z,132.43
2022-11-14T16:26:36.620Z,119.28
2022-11-14T16:29:23.040Z,117.13
2022-11-14T16:32:11.934Z,114.38
2022-11-14T16:34:58.674Z,142.35
2022-11-14T16:37:45.983Z,143.00
2022-11-14T16:40:32.660Z,122.43
2022-11-14T16:43:19.897Z,110.85
2022-11-14T16:46:09.379Z,123.47
2022-11-14T16:48:56.351Z,120.07
2022-11-14T16:51:51.439Z,122.05
2022-11-14T16:54:38.992Z,142.18
2022-11-14T16:57:26.478Z,252.25
2022-11-14T17:00:16.570Z,205.15
2022-11-14T17:05:52.311Z,109.47
2022-11-14T17:08:40.241Z,213.65
2022-11-14T17:11:28.050Z,151.30
2022-11-14T17:14:17.057Z,134.13
2022-11-14T17:17:05.688Z,107.97
2022-11-14T17:19:53.365Z,104.93
2022-11-14T17:22:40.501Z,121.75
2022-11-14T17:25:26.967Z,98.53
2022-11-14T17:28:14.926Z,102.68
2022-11-14T17:31:06.342Z,115.97
2022-11-14T17:33:58.368Z,155.02
2022-11-14T17:36:45.619Z,108.38
2022-11-14T17:39:35.760Z,146.40
2022-11-14T17:42:25.402Z,137.85
2022-11-14T17:45:12.484Z,96.30
2022-11-14T17:47:59.335Z,113.88
2022-11-14T17:50:46.408Z,79.47
2022-11-14T17:53:37.603Z,137.70
2022-11-14T17:56:26.253Z,120.03
2022-11-14T17:59:15.513Z,265.88
2022-11-14T18:02:03.209Z,102.80
2022-11-14T18:04:50.382Z,173.43
2022-11-14T18:07:44.975Z,90.95
2022-11-14T18:10:31.401Z,86.97
2022-11-14T18:13:18.177Z,103.88
2022-11-14T18:16:16.195Z,99.70
2022-11-14T18:19:03.654Z,88.85
2022-11-14T18:21:53.971Z,91.28
2022-11-14T18:27:31.216Z,86.95
2022-11-14T18:30:40.269Z,120.75
2022-11-14T18:33:25.560Z,93.45
2022-11-14T18:36:15.587Z,126.78
2022-11-14T18:39:02.541Z,85.18
2022-11-14T18:41:49.568Z,95.13
2022-11-14T18:44:36.264Z,127.15
2022-11-14T18:47:23.165Z,101.95
2022-11-14T18:50:10.305Z,88.38
2022-11-14T18:52:57.824Z,89.80
2022-11-14T18:55:45.293Z,76.22
2022-11-14T18:58:33.511Z,78.18
2022-11-14T19:01:26.846Z,102.95
2022-11-14T19:04:17.573Z,70.82
2022-11-14T19:07:10.199Z,109.40
2022-11-14T19:10:01.291Z,85.72
2022-11-14T19:12:50.508Z,93.93
2022-11-14T19:15:37.856Z,77.43
2022-11-14T19:18:26.837Z,75.13
2022-11-14T19:21:15.898Z,72.60
2022-11-14T19:24:03.067Z,86.72
2022-11-14T19:26:51.691Z,68.47
2022-11-14T19:29:41.617Z,80.75
2022-11-14T19:32:28.683Z,67.47
2022-11-14T19:35:20.487Z,69.53
2022-11-14T19:38:07.633Z,158.88
2022-11-14T19:40:54.255Z,76.15
2022-11-14T19:43:42.891Z,100.80
2022-11-14T19:46:30.175Z,99.88
2022-11-14T19:49:19.161Z,126.88
2022-11-14T19:52:06.167Z,129.98
2022-11-14T19:54:54.778Z,69.40
2022-11-14T19:57:41.803Z,114.43
2022-11-14T20:00:29.627Z,194.65
2022-11-14T20:03:16.453Z,114.55
2022-11-14T20:06:03.702Z,90.57
2022-11-14T20:08:51.878Z,227.60
2022-11-14T20:11:38.589Z,89.00
2022-11-14T20:14:25.537Z,93.35
2022-11-14T20:17:12.522Z,163.75
2022-11-14T20:19:59.041Z,79.15
2022-11-14T20:22:45.959Z,73.60
2022-11-14T20:25:32.675Z,85.63
2022-11-14T20:28:20.617Z,115.07
2022-11-14T20:31:10.189Z,80.53
2022-11-14T20:33:56.826Z,71.47
2022-11-14T20:37:09.182Z,76.30
2022-11-14T20:39:50.103Z,73.32
2022-11-14T20:42:36.506Z,76.40
2022-11-14T20:45:23.528Z,74.75
2022-11-14T20:48:09.548Z,78.32
2022-11-14T20:51:07.468Z,82.82
2022-11-14T20:53:55.680Z,84.38
2022-11-14T20:56:42.261Z,79.55
2022-11-14T20:59:28.875Z,75.90
2022-11-14T21:02:15.298Z,81.05
2022-11-14T21:05:01.892Z,74.88
2022-11-14T21:07:48.467Z,72.38
2022-11-14T21:10:46.388Z,82.50
2022-11-14T21:13:54.420Z,86.30
2022-11-14T21:16:41.335Z,96.53
2022-11-14T21:19:29.432Z,85.97
2022-11-14T21:22:16.165Z,71.10
2022-11-14T21:25:02.861Z,73.05
2022-11-14T21:27:50.612Z,71.05
2022-11-14T21:30:37.449Z,81.00
2022-11-14T21:33:23.720Z,85.25
2022-11-14T21:36:37.944Z,63.60
2022-11-14T21:39:18.061Z,74.53
2022-11-14T21:42:04.865Z,75.68
2022-11-14T21:44:51.231Z,74.95
2022-11-14T21:47:37.908Z,138.13
2022-11-14T21:50:24.096Z,66.43
2022-11-14T21:53:16.374Z,70.22
2022-11-14T21:56:22.385Z,66.05
2022-11-14T21:59:21.911Z,66.05
2022-11-14T22:02:30.860Z,61.77
2022-11-14T22:05:17.057Z,70.35
2022-11-14T22:08:03.554Z,101.88
2022-11-14T22:10:49.903Z,152.07
2022-11-14T22:13:36.088Z,122.88
2022-11-14T22:16:22.612Z,96.57
2022-11-14T22:19:08.927Z,83.97
2022-11-14T22:21:55.553Z,76.57
2022-11-14T22:24:41.849Z,79.65
2022-11-14T22:27:28.174Z,92.70
2022-11-14T22:30:14.931Z,86.03
2022-11-14T22:33:01.565Z,59.63
2022-11-14T22:35:48.796Z,72.80
2022-11-14T22:38:36.716Z,95.85
2022-11-14T22:41:32.373Z,64.80
2022-11-14T22:44:19.690Z,83.53
2022-11-14T22:47:05.717Z,66.72
2022-11-14T22:49:52.380Z,69.68
2022-11-14T22:52:38.652Z,69.68
2022-11-14T22:55:24.937Z,65.82
2022-11-14T22:58:11.259Z,64.50
2022-11-14T23:00:57.357Z,72.90
2022-11-14T23:03:43.693Z,73.63
2022-11-14T23:06:31.773Z,75.80
2022-11-14T23:09:18.541Z,68.03
2022-11-14T23:12:05.418Z,73.40
2022-11-14T23:14:51.364Z,80.38
2022-11-14T23:17:37.484Z,70.32
2022-11-14T23:20:23.729Z,70.07
2022-11-14T23:23:10.051Z,60.97
2022-11-14T23:25:56.142Z,96.25
2022-11-14T23:28:42.255Z,67.55
2022-11-14T23:31:28.555Z,122.13
2022-11-14T23:34:15.097Z,152.85
2022-11-14T23:37:01.553Z,80.28
2022-11-14T23:39:47.955Z,111.07
2022-11-14T23:42:34.041Z,90.30
2022-11-14T23:45:20.331Z,72.88
2022-11-14T23:48:06.776Z,80.93
2022-11-14T23:50:54.771Z,92.60
2022-11-14T23:53:41.655Z,126.53
2022-11-14T23:56:27.942Z,71.30
2022-11-14T23:59:14.214Z,84.97
